Impacts TAF Board INFO
FOR SITUATIONAL AWARENESS. NOT TO BE USED FOR FLIGHT PLANNING PURPOSES.
IDs:

KLAS - Las Vegas/McCarran I, NV, US

Issued at 0304 UTC 16 Dec 2017
Updated at 0515 UTC 16 Dec 2017
Potential Impact None Slight Moderate High
Time<<16/18Z 16/19Z 16/20Z 16/21Z 16/22Z 16/23Z 17/00Z 17/01Z 17/02Z 17/03Z 17/04Z 17/05Z 17/06Z>>
Type PRVL PRVL PRVL PRVL PRVL PRVL PRVL PRVL PRVL PRVL PRVL PRVL
VIS >6 >6 >6 >6 >6 >6 >6 >6 >6 >6 >6 >6
CIG 120 120 120 120 120 120 120 120 120 120 100 100
Cover BKN BKN BKN BKN BKN BKN BKN BKN BKN BKN BKN BKN
FltCat VFR VFR VFR VFR VFR VFR VFR VFR VFR VFR VFR VFR
WX -- -- -- -- -- -- -- -- -- -- -- --
WDir VRB VRB VRB VRB VRB VRB 350 350 350 350 350 350
WSpd 5 5 5 5 5 5 11 11 11 11 14 14
WGst -- -- -- -- -- -- -- -- -- -- 25 25

Raw TAF
KLAS 160304Z 1603/1706 VRB05KT P6SM SCT250
  FM160700 34006KT P6SM BKN200
  FM161500 VRB05KT P6SM SCT100 BKN120
  FM170000 35011KT P6SM SCT080 BKN120
  FM170400 35014G25KT P6SM SCT080 BKN100


METAR Board
Radar Display
Forecast Discussion

FOR SITUATIONAL AWARENESS. NOT TO BE USED FOR FLIGHT PLANNING PURPOSES.